Garden City Regional Airport
KGCK : now visible

Airfield :











YOU CAN JOIN US ON...

 
LOGIN :

Register | Disclaimer

   EN    FR    IT 

 









Legend :    VFR   Marginal VFR   IFR   Intensive IFR   Very Intensive IFR
Visi :
Ceiling :
>= 8 km
>= 3000ft
5 to 8 km
1000 to 3000 ft
1500m to 5 km
500 to 1000 ft
800 to 1500m
200 to 500 ft
< 800m
< 200 ft
Symbols :   Thunderstorms  Fog  Heavy snow  Heavy precipitations  Wind > 20 kt






- Airport Elevation : 2891 ft
- IATA code : GCK


KGCK - Garden City Regional

CURRENT METAR :
  • 251802Z 04013KT 4SM BR BKN006 OVC011 M01/M02 A3017 RMK AO2 CIG 005V009 T10111022

EXPIRED METARs :
  • 251754Z 03017KT 2 1/2SM BR BKN006 OVC011 M01/M02 A3016 RMK AO2 CIG 005V009 SLP235 60000 I1002 I6018 T10111022 11011 21017 50008
  • 251730Z 04012G20KT 2 1/2SM BR BKN008 OVC013 M01/M02 A3018 RMK AO2 CIG 005V011 I1001 T10111022
  • 251717Z 04014KT 3SM BR SCT006 OVC011 M01/M02 A3018 RMK AO2 I1000 T10111022
  • 251654Z 03014KT 3SM BR BKN007 OVC013 M01/M02 A3017 RMK AO2 CIG 006V010 SLP238 I1003 T10111022
  • 251639Z 03015KT 2 1/2SM BR BKN007 OVC011 M01/M02 A3018 RMK AO2 CIG 004V010 I1002 T10111022
  • 251554Z 02016KT 1 3/4SM BR BKN007 OVC011 M01/M02 A3017 RMK AO2 FZRAE26 CIG 004V010 SLP236 P0000 I1003 T10111022

TAF KGCK
Valid from the 25 at 18:00 until the 26 at 18:00 UTC


251734Z 2518/2618 03014G21KT 3SM -FZDZ OVC005
FM260600 01015G24KT 2SM -SN OVC010
KZKC FIR / North America



MET'MAP, your aeronautical weather chart ! - Copyright ORBIFLY December 2007 - Disclaimer

ORBIFLY MET'MAP TEAM :

Programming & Development : Alexandra Zaïnal
Concept & original design : Baudouin d'Aumeries
Assistance for programming : Marc-Olivier Méhu
Technical & hardware support : Manuel Goepfert

Contact : metmap@orbifly.com




SOURCES & CREDITS :

   NOAA       Earth
Advisory